Time;durP1;ratioP1;P1;durP2;ratioP2;P2;SDS_P1;SDS_P2;PMS_P1;PMS_P2;Temp;Humidity;BMP_temperature;BMP_pressure;BME280_temperature;BME280_humidity;BME280_pressure;Samples;Min_cycle;Max_cycle;Signal;HPM_P1;HPM_P2
2021/10/06 00:02:25;;;;;;;4.70;1.10;;;;;;;-144.51;100.00;69251.94;5078547;28;20044;-61
2021/10/06 00:05:10;;;;;;;;;;;;;;;-144.51;100.00;69251.94;5079113;28;20041;-60
2021/10/06 00:07:55;;;;;;;4.25;1.38;;;;;;;-144.51;100.00;69251.94;5081186;28;20379;-61
2021/10/06 00:10:40;;;;;;;5.32;1.20;;;;;;;-144.51;100.00;69251.94;5078706;28;20045;-60
2021/10/06 00:13:25;;;;;;;7.70;1.42;;;;;;;-144.51;100.00;69251.94;5078616;28;20044;-62
2021/10/06 00:16:15;;;;;;;;;;;;;;;-144.51;100.00;69251.94;5095122;28;20237;-62
2021/10/06 00:19:26;;;;;;;2.33;0.97;;;;;;;-144.51;100.00;69251.94;5093811;28;19912;-62
2021/10/06 00:22:10;;;;;;;5.00;1.30;;;;;;;-144.51;100.00;69251.94;5094378;28;20040;-60
2021/10/06 00:24:55;;;;;;;13.55;1.58;;;;;;;-144.51;100.00;69251.94;5096058;28;20056;-61
2021/10/06 00:27:41;;;;;;;4.97;1.33;;;;;;;-144.51;100.00;69251.94;5102719;28;20048;-62
2021/10/06 00:30:25;;;;;;;;;;;;;;;-144.51;100.00;69251.94;5102315;28;20044;-61
2021/10/06 00:33:10;;;;;;;8.55;1.63;;;;;;;-144.51;100.00;69251.94;5102855;28;19916;-62
2021/10/06 00:35:55;;;;;;;;;;;;;;;-144.51;100.00;69251.94;5099068;28;20029;-63
2021/10/06 00:38:40;;;;;;;9.45;1.27;;;;;;;-144.51;100.00;69251.94;5098970;28;19916;-62
2021/10/06 00:41:25;;;;;;;4.30;1.15;;;;;;;-144.51;100.00;69251.94;5102693;28;20040;-62
2021/10/06 00:44:17;;;;;;;;;;;;;;;-144.51;100.00;69251.94;5103088;28;20430;-62
2021/10/06 00:47:03;;;;;;;4.65;1.35;;;;;;;-144.51;100.00;69251.94;5095598;28;19913;-63
2021/10/06 00:49:50;;;;;;;7.28;2.10;;;;;;;-144.51;100.00;69251.94;5076767;28;20048;-62
2021/10/06 00:52:35;;;;;;;5.28;1.95;;;;;;;-144.51;100.00;69251.94;5082676;28;20036;-62
2021/10/06 00:55:26;;;;;;;6.07;2.10;;;;;;;-144.51;100.00;69251.94;5082603;28;20048;-62
2021/10/06 00:58:16;;;;;;;6.50;2.05;;;;;;;-144.51;100.00;69251.94;5080735;28;20044;-62
2021/10/06 01:01:01;;;;;;;5.90;1.92;;;;;;;-144.51;100.00;69251.94;5081688;28;20040;-62
2021/10/06 01:03:46;;;;;;;4.25;1.77;;;;;;;-144.51;100.00;69251.94;5077493;28;20048;-62
2021/10/06 01:06:31;;;;;;;;;;;;;;;-144.51;100.00;69251.94;5092257;28;20499;-61
2021/10/06 01:09:16;;;;;;;8.10;1.80;;;;;;;-144.51;100.00;69251.94;5088073;28;19915;-61
2021/10/06 01:12:02;;;;;;;7.15;1.70;;;;;;;-144.51;100.00;69251.94;5097280;28;20035;-62
2021/10/06 01:14:48;;;;;;;4.25;1.67;;;;;;;-144.51;100.00;69251.94;5095712;28;20048;-61
2021/10/06 01:17:32;;;;;;;8.57;2.28;;;;;;;-144.51;100.00;69251.94;5091738;28;20491;-62
2021/10/06 01:20:17;;;;;;;3.40;1.27;;;;;;;-144.51;100.00;69251.94;5091468;28;20044;-62
2021/10/06 01:23:02;;;;;;;6.40;1.58;;;;;;;-144.51;100.00;69251.94;5093457;28;20036;-62
2021/10/06 01:25:48;;;;;;;8.27;1.80;;;;;;;-144.51;100.00;69251.94;5098362;28;20044;-62
2021/10/06 01:28:33;;;;;;;8.50;1.50;;;;;;;-144.51;100.00;69251.94;5084149;28;20406;-62
2021/10/06 01:31:17;;;;;;;;;;;;;;;-144.51;100.00;69251.94;5098611;28;20047;-60
2021/10/06 01:34:03;;;;;;;5.53;1.17;;;;;;;-144.51;100.00;69251.94;5090832;28;19913;-61
2021/10/06 01:36:48;;;;;;;;;;;;;;;-144.51;100.00;69251.94;5089476;28;20040;-61
2021/10/06 01:39:34;;;;;;;4.38;1.20;;;;;;;-144.51;100.00;69251.94;5087736;28;19912;-62
2021/10/06 01:42:18;;;;;;;;;;;;;;;-144.51;100.00;69251.94;5101789;28;20048;-61
2021/10/06 01:45:03;;;;;;;4.05;1.30;;;;;;;-144.51;100.00;69251.94;5097983;28;19912;-61
2021/10/06 01:47:49;;;;;;;9.15;1.45;;;;;;;-144.51;100.00;69251.94;5100832;28;20044;-62
2021/10/06 01:50:33;;;;;;;;;;;;;;;-144.51;100.00;69251.94;5085795;28;20040;-60
2021/10/06 01:53:18;;;;;;;6.53;1.55;;;;;;;-144.51;100.00;69251.94;5096874;28;19920;-61
2021/10/06 01:56:03;;;;;;;6.90;1.67;;;;;;;-144.51;100.00;69251.94;5094424;28;20040;-62
2021/10/06 01:58:49;;;;;;;9.48;1.25;;;;;;;-144.51;100.00;69251.94;5097955;28;20052;-63
2021/10/06 02:01:34;;;;;;;21.35;5.05;;;;;;;-144.51;100.00;69251.94;5097779;28;20032;-62
2021/10/06 02:04:19;;;;;;;47.42;9.95;;;;;;;-144.51;100.00;69251.94;5095601;28;20499;-62
2021/10/06 02:07:04;;;;;;;;;;;;;;;-144.51;100.00;69251.94;5100101;28;20032;-62
2021/10/06 02:09:49;;;;;;;22.38;3.15;;;;;;;-144.51;100.00;69251.94;5092765;28;19912;-62
2021/10/06 02:12:34;;;;;;;22.38;4.70;;;;;;;-144.51;100.00;69251.94;5095098;28;20039;-63
2021/10/06 02:15:20;;;;;;;17.45;3.40;;;;;;;-144.51;100.00;69251.94;5091488;28;20507;-63
2021/10/06 02:18:05;;;;;;;10.98;2.17;;;;;;;-144.51;100.00;69251.94;5095038;28;20044;-63
2021/10/06 02:20:49;;;;;;;;;;;;;;;-144.51;100.00;69251.94;5094904;28;20514;-62
2021/10/06 02:23:34;;;;;;;20.70;3.42;;;;;;;-144.51;100.00;69251.94;5073977;28;19916;-62
2021/10/06 02:26:18;;;;;;;;;;;;;;;-144.51;100.00;69251.94;5096456;28;20048;-62
2021/10/06 02:29:03;;;;;;;13.27;3.70;;;;;;;-144.51;100.00;69251.94;5096351;28;20367;-62
2021/10/06 02:31:48;;;;;;;;;;;;;;;-144.51;100.00;69251.94;5100793;28;20039;-62
2021/10/06 02:34:32;;;;;;;12.13;2.92;;;;;;;-144.51;100.00;69251.94;5097182;28;19920;-62
2021/10/06 02:37:17;;;;;;;;;;;;;;;-144.51;100.00;69251.94;5089293;28;20412;-62
2021/10/06 02:40:03;;;;;;;11.45;1.48;;;;;;;-144.51;100.00;69251.94;5092906;28;19912;-62
2021/10/06 02:42:50;;;;;;;6.57;1.73;;;;;;;-144.51;100.00;69251.94;5078277;28;20403;-62
2021/10/06 02:45:34;;;;;;;3.47;0.82;;;;;;;-144.51;100.00;69251.94;5076100;28;20041;-63
2021/10/06 02:48:21;;;;;;;;;;;;;;;-144.51;100.00;69251.94;5080175;28;20036;-62
2021/10/06 02:51:06;;;;;;;9.65;1.83;;;;;;;-144.51;100.00;69251.94;5094668;28;19911;-63
2021/10/06 02:53:51;;;;;;;9.60;2.80;;;;;;;-144.51;100.00;69251.94;5096520;28;20044;-62
2021/10/06 02:56:36;;;;;;;;;;;;;;;-144.51;100.00;69251.94;5093920;28;20475;-62
2021/10/06 02:59:20;;;;;;;6.03;1.55;;;;;;;-144.51;100.00;69251.94;5087996;28;19912;-61
2021/10/06 03:02:05;;;;;;;14.05;2.70;;;;;;;-144.51;100.00;69251.94;5080743;28;20032;-65
2021/10/06 03:04:50;;;;;;;5.28;1.05;;;;;;;-144.51;100.00;69251.94;5073852;28;20041;-61
2021/10/06 03:07:35;;;;;;;5.30;1.35;;;;;;;-144.51;100.00;69251.94;5085188;28;20495;-62
2021/10/06 03:10:20;;;;;;;;;;;;;;;-144.51;100.00;69251.94;5099826;28;20040;-63
2021/10/06 03:13:04;;;;;;;7.82;1.88;;;;;;;-144.51;100.00;69251.94;5099575;28;19912;-62
2021/10/06 03:15:49;;;;;;;10.23;2.30;;;;;;;-144.51;100.00;69251.94;5093219;28;20491;-61
2021/10/06 03:18:34;;;;;;;;;;;;;;;-144.51;100.00;69251.94;5092007;28;20040;-62
2021/10/06 03:21:19;;;;;;;7.72;1.95;;;;;;;-144.51;100.00;69251.94;5087501;28;20359;-62
2021/10/06 03:24:03;;;;;;;7.85;1.45;;;;;;;-144.51;100.00;69251.94;5092819;28;20040;-62
2021/10/06 03:26:49;;;;;;;4.22;1.67;;;;;;;-144.51;100.00;69251.94;5097198;28;20052;-62
2021/10/06 03:29:33;;;;;;;;;;;;;;;-144.51;100.00;69251.94;5088008;28;20035;-62
2021/10/06 03:32:18;;;;;;;11.30;1.95;;;;;;;-144.51;100.00;69251.94;5083505;28;19920;-62
2021/10/06 03:35:03;;;;;;;;;;;;;;;-144.51;100.00;69251.94;5096768;28;20052;-63
2021/10/06 03:37:49;;;;;;;6.10;2.60;;;;;;;-144.51;100.00;69251.94;5094841;28;19912;-62
2021/10/06 03:40:34;;;;;;;7.45;2.53;;;;;;;-144.51;100.00;69251.94;5091674;28;20036;-63
2021/10/06 03:43:19;;;;;;;;;;;;;;;-144.51;100.00;69251.94;5097734;28;20459;-63
2021/10/06 03:46:03;;;;;;;7.80;1.95;;;;;;;-144.51;100.00;69251.94;5088046;28;20416;-63
2021/10/06 03:48:51;;;;;;;7.40;2.08;;;;;;;-144.51;100.00;69251.94;5107015;22;20044;-80
2021/10/06 03:51:36;;;;;;;10.43;3.38;;;;;;;-144.51;100.00;69251.94;5097518;28;20044;-80
2021/10/06 03:54:21;;;;;;;6.00;2.33;;;;;;;-144.51;100.00;69251.94;5102591;28;20040;-80
2021/10/06 03:57:06;;;;;;;9.02;2.45;;;;;;;-144.51;100.00;69251.94;5107011;28;20040;-80
2021/10/06 03:59:51;;;;;;;12.10;2.08;;;;;;;-144.51;100.00;69251.94;5103553;28;20048;-80
2021/10/06 04:02:36;;;;;;;8.52;2.40;;;;;;;-144.51;100.00;69251.94;5103157;28;20515;-80
2021/10/06 04:05:21;;;;;;;8.70;2.03;;;;;;;-144.51;100.00;69251.94;5107649;28;20051;-79
2021/10/06 04:08:06;;;;;;;;;;;;;;;-144.51;100.00;69251.94;5103310;28;20044;-80
2021/10/06 04:10:50;;;;;;;6.57;1.83;;;;;;;-144.51;100.00;69251.94;5095295;28;19913;-80
2021/10/06 04:13:35;;;;;;;12.30;2.17;;;;;;;-144.51;100.00;69251.94;5101152;28;20032;-79
2021/10/06 04:16:20;;;;;;;13.38;2.40;;;;;;;-144.51;100.00;69251.94;5097528;28;20040;-80
2021/10/06 04:19:04;;;;;;;;;;;;;;;-144.51;100.00;69251.94;5093386;28;20036;-80
2021/10/06 04:21:49;;;;;;;9.20;2.53;;;;;;;-144.51;100.00;69251.94;5105846;28;20295;-80
2021/10/06 04:24:34;;;;;;;4.97;1.23;;;;;;;-144.51;100.00;69251.94;5098774;28;20412;-80
2021/10/06 04:27:19;;;;;;;5.38;1.00;;;;;;;-144.51;100.00;69251.94;5088338;28;20040;-80
2021/10/06 04:30:05;;;;;;;5.80;2.08;;;;;;;-144.51;100.00;69251.94;5080590;28;20052;-82
2021/10/06 04:32:50;;;;;;;4.65;1.80;;;;;;;-144.51;100.00;69251.94;5092502;28;20426;-82
2021/10/06 04:35:35;;;;;;;6.97;1.60;;;;;;;-144.51;100.00;69251.94;5092718;28;20036;-82
2021/10/06 04:38:20;;;;;;;21.35;2.03;;;;;;;-144.51;100.00;69251.94;5098978;28;20044;-82
2021/10/06 04:41:05;;;;;;;8.80;2.25;;;;;;;-144.51;100.00;69251.94;5097368;28;20032;-82
2021/10/06 04:43:50;;;;;;;9.05;1.58;;;;;;;-144.51;100.00;69251.94;5096220;28;20044;-82
2021/10/06 04:46:35;;;;;;;11.25;2.53;;;;;;;-144.51;100.00;69251.94;5087852;28;20040;-82
2021/10/06 04:49:20;;;;;;;;;;;;;;;-144.51;100.00;69251.94;5085879;28;20045;-82
2021/10/06 04:52:04;;;;;;;13.15;2.80;;;;;;;-144.51;100.00;69251.94;5098559;28;19912;-82
2021/10/06 04:54:52;;;;;;;6.45;1.23;;;;;;;-144.51;100.00;69251.94;5099859;28;20036;-82
2021/10/06 04:57:37;;;;;;;17.35;2.95;;;;;;;-144.51;100.00;69251.94;5102553;28;20036;-82
2021/10/06 05:00:22;;;;;;;22.00;2.33;;;;;;;-144.51;100.00;69251.94;5098337;28;20036;-82
2021/10/06 05:03:11;;;;;;;;;;;;;;;-144.51;100.00;69251.94;5085817;28;20037;-82
2021/10/06 05:05:56;;;;;;;4.05;1.73;;;;;;;-144.51;100.00;69251.94;5101146;28;19912;-82
2021/10/06 05:08:43;;;;;;;6.30;2.28;;;;;;;-144.51;100.00;69251.94;5094532;28;20040;-83
2021/10/06 05:11:29;;;;;;;12.75;1.95;;;;;;;-144.51;100.00;69251.94;5100637;28;20044;-83
2021/10/06 05:14:14;;;;;;;30.65;3.20;;;;;;;-144.51;100.00;69251.94;5101726;28;20048;-82
2021/10/06 05:16:59;;;;;;;13.02;2.13;;;;;;;-144.51;100.00;69251.94;5107563;28;20039;-82
2021/10/06 05:19:44;;;;;;;22.20;3.15;;;;;;;-144.51;100.00;69251.94;5101439;28;20048;-83
2021/10/06 05:22:29;;;;;;;;;;;;;;;-144.51;100.00;69251.94;5100716;28;20040;-84
2021/10/06 05:25:17;;;;;;;21.10;2.05;;;;;;;-144.51;100.00;69251.94;5101571;28;19916;-83
2021/10/06 05:28:03;;;;;;;15.02;2.10;;;;;;;-144.51;100.00;69251.94;5096509;28;20032;-80
2021/10/06 05:30:48;;;;;;;5.80;1.02;;;;;;;-144.51;100.00;69251.94;5101435;28;20040;-80
2021/10/06 05:33:33;;;;;;;;;;;;;;;-144.51;100.00;69251.94;5092714;28;20044;-80
2021/10/06 05:36:17;;;;;;;11.30;2.22;;;;;;;-144.51;100.00;69251.94;5084775;28;19912;-79
2021/10/06 05:39:03;;;;;;;5.43;1.95;;;;;;;-144.51;100.00;69251.94;5093352;28;20033;-80
2021/10/06 05:41:48;;;;;;;7.05;1.38;;;;;;;-144.51;100.00;69251.94;5089530;28;20036;-79
2021/10/06 05:44:33;;;;;;;4.28;1.08;;;;;;;-144.51;100.00;69251.94;5102727;28;20044;-80
2021/10/06 05:47:17;;;;;;;15.48;1.70;;;;;;;-144.51;100.00;69251.94;5108639;28;20048;-80
2021/10/06 05:50:04;;;;;;;9.68;2.35;;;;;;;-144.51;100.00;69251.94;5103112;28;20431;-80
2021/10/06 05:52:49;;;;;;;7.70;2.28;;;;;;;-144.51;100.00;69251.94;5104690;28;20031;-79
2021/10/06 05:55:33;;;;;;;12.35;2.00;;;;;;;-144.51;100.00;69251.94;5107119;28;20052;-79
2021/10/06 05:58:19;;;;;;;7.32;1.63;;;;;;;-144.51;100.00;69251.94;5105613;28;20040;-79
2021/10/06 06:01:04;;;;;;;9.43;2.35;;;;;;;-144.51;100.00;69251.94;5102924;28;20048;-80
2021/10/06 06:03:48;;;;;;;6.25;1.90;;;;;;;-144.51;100.00;69251.94;5101453;28;20040;-80
2021/10/06 06:06:33;;;;;;;8.75;2.05;;;;;;;-144.51;100.00;69251.94;5098990;28;20044;-80
2021/10/06 06:09:20;;;;;;;13.48;2.20;;;;;;;-144.51;100.00;69251.94;5087937;28;20048;-80
2021/10/06 06:12:09;;;;;;;8.07;1.80;;;;;;;-144.51;100.00;69251.94;5095813;28;20052;-80
2021/10/06 06:14:54;;;;;;;6.97;1.55;;;;;;;-144.51;100.00;69251.94;5092257;28;20040;-80
2021/10/06 06:17:40;;;;;;;6.18;1.85;;;;;;;-144.51;100.00;69251.94;5093419;28;20041;-80
2021/10/06 06:20:24;;;;;;;;;;;;;;;-144.51;100.00;69251.94;5086225;28;20032;-80
2021/10/06 06:23:09;;;;;;;11.10;3.33;;;;;;;-144.51;100.00;69251.94;5093075;28;19946;-80
2021/10/06 06:25:54;;;;;;;9.18;2.72;;;;;;;-144.51;100.00;69251.94;5086871;28;20036;-80
2021/10/06 06:28:39;;;;;;;6.95;2.58;;;;;;;-144.51;100.00;69251.94;5089612;28;20040;-80
2021/10/06 06:31:24;;;;;;;12.43;2.30;;;;;;;-144.51;100.00;69251.94;5084181;28;20044;-81
2021/10/06 06:34:09;;;;;;;8.82;1.83;;;;;;;-144.51;100.00;69251.94;5082106;28;20044;-80
2021/10/06 06:36:53;;;;;;;9.07;1.90;;;;;;;-144.51;100.00;69251.94;5080334;28;20040;-79
2021/10/06 06:39:38;;;;;;;9.45;1.92;;;;;;;-144.51;100.00;69251.94;5081704;28;20045;-80
2021/10/06 06:42:23;;;;;;;;;;;;;;;-144.51;100.00;69251.94;5084665;28;20036;-80
2021/10/06 06:45:08;;;;;;;8.57;1.30;;;;;;;-144.51;100.00;69251.94;5081644;28;19917;-80
2021/10/06 06:47:53;;;;;;;8.18;1.40;;;;;;;-144.51;100.00;69251.94;5085648;28;20036;-80
2021/10/06 06:50:38;;;;;;;9.18;2.15;;;;;;;-144.51;100.00;69251.94;5084176;28;20044;-80
2021/10/06 06:53:27;;;;;;;11.48;2.05;;;;;;;-144.51;100.00;69251.94;5083160;28;20450;-80
2021/10/06 06:56:12;;;;;;;3.13;1.08;;;;;;;-144.51;100.00;69251.94;5086486;28;20488;-79
2021/10/06 06:58:57;;;;;;;8.85;1.17;;;;;;;-144.51;100.00;69251.94;5083260;28;20044;-80
2021/10/06 07:01:42;;;;;;;10.10;1.73;;;;;;;-144.51;100.00;69251.94;5081975;28;20044;-80
2021/10/06 07:04:27;;;;;;;6.75;1.55;;;;;;;-144.51;100.00;69251.94;5079829;28;20037;-80
2021/10/06 07:07:14;;;;;;;7.07;0.98;;;;;;;-144.51;100.00;69251.94;5083593;28;20053;-80
2021/10/06 07:09:59;;;;;;;8.05;1.95;;;;;;;-144.51;100.00;69251.94;5079660;28;20033;-79
2021/10/06 07:12:44;;;;;;;6.60;1.38;;;;;;;-144.51;100.00;69251.94;5079905;28;20048;-80
2021/10/06 07:15:30;;;;;;;3.67;1.05;;;;;;;-144.51;100.00;69251.94;5083465;28;20056;-79
2021/10/06 07:18:16;;;;;;;2.88;1.00;;;;;;;-144.51;100.00;69251.94;5082246;28;20504;-80
2021/10/06 07:21:01;;;;;;;6.45;0.68;;;;;;;-144.51;100.00;69251.94;5080120;28;20497;-80
2021/10/06 07:23:46;;;;;;;11.75;1.70;;;;;;;-144.51;100.00;69251.94;5083839;28;20040;-80
2021/10/06 07:26:30;;;;;;;;;;;;;;;-144.51;100.00;69251.94;5081971;28;20040;-80
2021/10/06 07:29:15;;;;;;;3.35;0.90;;;;;;;-144.51;100.00;69251.94;5080680;28;19912;-80
2021/10/06 07:32:01;;;;;;;5.60;0.98;;;;;;;-144.51;100.00;69251.94;5084699;28;20517;-80
2021/10/06 07:34:45;;;;;;;5.35;1.23;;;;;;;-144.51;100.00;69251.94;5081575;28;20040;-79
2021/10/06 07:37:30;;;;;;;7.28;1.83;;;;;;;-144.51;100.00;69251.94;5080167;28;20036;-80
2021/10/06 07:40:15;;;;;;;6.00;1.13;;;;;;;-144.51;100.00;69251.94;5086486;28;20044;-79
2021/10/06 07:43:01;;;;;;;8.77;1.85;;;;;;;-144.51;100.00;69251.94;5094424;28;20033;-80
2021/10/06 07:45:46;;;;;;;7.40;0.88;;;;;;;-144.51;100.00;69251.94;5088036;28;20108;-81
2021/10/06 07:48:30;;;;;;;14.07;2.63;;;;;;;-144.51;100.00;69251.94;5094739;28;20058;-81
2021/10/06 07:51:15;;;;;;;7.03;1.13;;;;;;;-144.51;100.00;69251.94;5096102;28;20036;-81
2021/10/06 07:54:00;;;;;;;26.83;1.95;;;;;;;-144.51;100.00;69251.94;5098077;28;20040;-80
2021/10/06 07:56:45;;;;;;;26.13;3.30;;;;;;;-144.51;100.00;69251.94;5094843;28;20202;-79
2021/10/06 07:59:29;;;;;;;25.85;2.75;;;;;;;-144.51;100.00;69251.94;5088034;28;20040;-79
2021/10/06 08:02:14;;;;;;;8.50;1.10;;;;;;;-144.51;100.00;69251.94;5100030;28;20044;-81
2021/10/06 08:04:59;;;;;;;18.80;2.38;;;;;;;-144.51;100.00;69251.94;5089655;28;20040;-79
2021/10/06 08:07:44;;;;;;;25.98;2.42;;;;;;;-144.51;100.00;69251.94;5097808;28;20412;-79
2021/10/06 08:10:28;;;;;;;46.15;4.05;;;;;;;-144.51;100.00;69251.94;5102985;28;20039;-78
2021/10/06 08:13:14;;;;;;;29.88;3.33;;;;;;;-144.51;100.00;69251.94;5093988;28;20052;-79
2021/10/06 08:15:59;;;;;;;20.98;2.67;;;;;;;-144.51;100.00;69251.94;5089350;28;20040;-79
2021/10/06 08:18:44;;;;;;;4.72;0.95;;;;;;;-144.51;100.00;69251.94;5102540;28;20051;-80
2021/10/06 08:21:28;;;;;;;17.85;2.05;;;;;;;-144.51;100.00;69251.94;5089259;28;20040;-80
2021/10/06 08:24:14;;;;;;;11.35;1.73;;;;;;;-144.51;100.00;69251.94;5084269;28;20048;-82
2021/10/06 08:26:58;;;;;;;;;;;;;;;-144.51;100.00;69251.94;5094697;28;20032;-80
2021/10/06 08:29:43;;;;;;;5.93;1.25;;;;;;;-144.51;100.00;69251.94;5099178;28;20106;-80
2021/10/06 08:32:27;;;;;;;;;;;;;;;-144.51;100.00;69251.94;5099410;28;20040;-78
2021/10/06 08:35:12;;;;;;;8.70;1.30;;;;;;;-144.51;100.00;69251.94;5102684;28;19938;-78
2021/10/06 08:37:57;;;;;;;;;;;;;;;-144.51;100.00;69251.94;5102041;28;20036;-79
2021/10/06 08:40:41;;;;;;;4.47;1.17;;;;;;;-144.51;100.00;69251.94;5098186;28;19912;-78
2021/10/06 08:43:27;;;;;;;12.73;1.65;;;;;;;-144.51;100.00;69251.94;5095921;28;20040;-78
2021/10/06 08:46:13;;;;;;;3.28;1.10;;;;;;;-144.51;100.00;69251.94;5095871;28;20049;-78
2021/10/06 08:49:00;;;;;;;10.30;0.95;;;;;;;-144.51;100.00;69251.94;5098386;28;20404;-78
2021/10/06 08:51:44;;;;;;;12.38;1.77;;;;;;;-144.51;100.00;69251.94;5098065;28;20067;-78
2021/10/06 08:54:31;;;;;;;11.65;1.60;;;;;;;-144.51;100.00;69251.94;5105613;28;20036;-78
2021/10/06 08:57:16;;;;;;;9.07;1.20;;;;;;;-144.51;100.00;69251.94;5095035;28;20048;-78
2021/10/06 09:00:00;;;;;;;;;;;;;;;-144.51;100.00;69251.94;5088551;28;20416;-78
2021/10/06 09:02:46;;;;;;;4.97;1.00;;;;;;;-144.51;100.00;69251.94;5095672;28;19916;-78
2021/10/06 09:05:30;;;;;;;9.48;1.55;;;;;;;-144.51;100.00;69251.94;5100861;28;20044;-78
2021/10/06 09:08:17;;;;;;;8.45;1.17;;;;;;;-144.51;100.00;69251.94;5101930;28;20044;-78
2021/10/06 09:11:05;;;;;;;6.85;1.10;;;;;;;-144.51;100.00;69251.94;5104780;28;20036;-78
2021/10/06 09:13:51;;;;;;;7.72;1.45;;;;;;;-144.51;100.00;69251.94;5094877;28;20052;-78
2021/10/06 09:16:39;;;;;;;7.90;1.60;;;;;;;-144.51;100.00;69251.94;5094462;28;20036;-77
2021/10/06 09:19:46;;;;;;;5.63;1.13;;;;;;;-144.51;100.00;69251.94;5086000;28;20044;-76
2021/10/06 09:22:31;;;;;;;4.40;1.10;;;;;;;-144.51;100.00;69251.94;5095430;28;20036;-77
2021/10/06 09:25:15;;;;;;;13.02;1.85;;;;;;;-144.51;100.00;69251.94;5098269;28;20428;-78
2021/10/06 09:28:00;;;;;;;5.13;1.33;;;;;;;-144.51;100.00;69251.94;5091884;28;20036;-77
2021/10/06 09:30:45;;;;;;;15.43;2.72;;;;;;;-144.51;100.00;69251.94;5091634;28;20039;-77
2021/10/06 09:33:56;;;;;;;;;;;;;;;-144.51;100.00;69251.94;5097569;28;20044;-77
2021/10/06 09:40:47;;;;;;;8.23;2.47;;;;;;;-144.51;100.00;69251.94;5099744;28;20031;-77
2021/10/06 09:43:32;;;;;;;15.15;2.55;;;;;;;-144.51;100.00;69251.94;5098784;28;20044;-78
2021/10/06 09:46:17;;;;;;;8.27;2.78;;;;;;;-144.51;100.00;69251.94;5100014;28;20634;-77
2021/10/06 10:01:29;;;;;;;11.80;2.53;;;;;;;-144.51;100.00;69251.94;5049803;28;20396;-65
2021/10/06 10:04:14;;;;;;;13.50;2.47;;;;;;;-144.51;100.00;69251.94;5056768;28;20492;-64
2021/10/06 10:06:59;;;;;;;14.63;2.47;;;;;;;-144.51;100.00;69251.94;5057387;28;20045;-64
2021/10/06 10:09:44;;;;;;;;;;;;;;;-144.51;100.00;69251.94;5050301;28;20415;-64
2021/10/06 10:12:29;;;;;;;16.03;2.97;;;;;;;-144.51;100.00;69251.94;5041189;28;19913;-65
2021/10/06 10:15:19;;;;;;;13.10;2.38;;;;;;;-144.51;100.00;69251.94;5040902;28;20084;-65
2021/10/06 10:18:08;;;;;;;6.55;2.17;;;;;;;-144.51;100.00;69251.94;5048031;28;20512;-64
2021/10/06 10:20:53;;;;;;;10.27;1.98;;;;;;;-144.51;100.00;69251.94;5052577;28;20054;-64
2021/10/06 10:23:38;;;;;;;;;;;;;;;-144.51;100.00;69251.94;5057507;28;20033;-65
2021/10/06 10:26:24;;;;;;;5.43;1.40;;;;;;;-144.51;100.00;69251.94;5050803;28;19916;-65
2021/10/06 10:29:50;;;;;;;6.50;1.65;;;;;;;-144.51;100.00;69251.94;5056051;28;20041;-64
2021/10/06 10:32:43;;;;;;;4.25;1.00;;;;;;;-144.51;100.00;69251.94;5051141;28;20033;-64
2021/10/06 10:35:39;;;;;;;8.40;1.65;;;;;;;-144.51;100.00;69251.94;5057499;28;20451;-65
2021/10/06 10:38:34;;;;;;;11.25;1.92;;;;;;;-144.51;100.00;69251.94;5053149;28;20037;-65
2021/10/06 10:41:52;;;;;;;6.13;1.15;;;;;;;-144.51;100.00;69251.94;5060175;28;20504;-64
2021/10/06 10:44:38;;;;;;;10.65;1.48;;;;;;;-144.51;100.00;69251.94;5053829;28;20041;-65
2021/10/06 10:47:24;;;;;;;16.30;2.28;;;;;;;-144.51;100.00;69251.94;5057778;28;20041;-64
2021/10/06 10:50:08;;;;;;;;;;;;;;;-144.51;100.00;69251.94;5056542;28;20045;-65
2021/10/06 10:52:53;;;;;;;10.80;1.67;;;;;;;-144.51;100.00;69251.94;5056143;28;19913;-64
2021/10/06 10:55:47;;;;;;;;;;;;;;;-144.51;100.00;69251.94;5059978;28;20037;-64
2021/10/06 10:58:36;;;;;;;12.05;2.10;;;;;;;-144.51;100.00;69251.94;5056439;28;19916;-64
2021/10/06 11:01:41;;;;;;;8.38;0.93;;;;;;;-144.51;100.00;69251.94;5057183;28;20048;-65
2021/10/06 11:04:34;;;;;;;8.90;1.37;;;;;;;-144.51;100.00;69251.94;5056099;28;20037;-64
2021/10/06 11:07:21;;;;;;;1.25;0.70;;;;;;;-144.51;100.00;69251.94;5053651;28;20041;-64
2021/10/06 11:10:17;;;;;;;13.30;1.20;;;;;;;-144.51;100.00;69251.94;5050855;28;20044;-64
2021/10/06 11:13:06;;;;;;;4.95;0.98;;;;;;;-144.51;100.00;69251.94;5052630;28;20049;-64
2021/10/06 11:15:50;;;;;;;5.03;1.08;;;;;;;-144.51;100.00;69251.94;5057393;28;20381;-64
2021/10/06 11:18:46;;;;;;;;;;;;;;;-144.51;100.00;69251.94;5056837;28;20700;-64
2021/10/06 11:21:32;;;;;;;13.60;1.40;;;;;;;-144.51;100.00;69251.94;5051729;28;20303;-64
2021/10/06 11:24:23;;;;;;;6.07;1.20;;;;;;;-144.51;100.00;69251.94;5058134;28;20037;-64
2021/10/06 11:27:08;;;;;;;2.92;0.80;;;;;;;-144.51;100.00;69251.94;5057640;28;20403;-65
2021/10/06 11:29:56;;;;;;;9.02;0.85;;;;;;;-144.51;100.00;69251.94;5052372;28;20053;-64
2021/10/06 11:32:53;;;;;;;1.27;0.40;;;;;;;-144.51;100.00;69251.94;5055105;28;20037;-64
2021/10/06 11:35:37;;;;;;;2.38;0.73;;;;;;;-144.51;100.00;69251.94;5056677;28;20033;-65
2021/10/06 11:38:22;;;;;;;2.95;0.40;;;;;;;-144.51;100.00;69251.94;5053366;28;20033;-65
2021/10/06 11:41:09;;;;;;;3.75;0.50;;;;;;;-144.51;100.00;69251.94;5052353;28;20049;-64
2021/10/06 11:43:55;;;;;;;0.93;0.40;;;;;;;-144.51;100.00;69251.94;5053133;28;20407;-64
2021/10/06 11:46:41;;;;;;;2.25;0.40;;;;;;;-144.51;100.00;69251.94;5059218;28;20348;-64
2021/10/06 11:49:29;;;;;;;2.58;0.30;;;;;;;-144.51;100.00;69251.94;5047812;28;20040;-65
2021/10/06 11:52:17;;;;;;;5.15;0.30;;;;;;;-144.51;100.00;69251.94;5058109;28;20044;-64
2021/10/06 11:55:03;;;;;;;1.00;0.10;;;;;;;-144.51;100.00;69251.94;5058940;28;20403;-64
2021/10/06 11:57:48;;;;;;;1.42;0.30;;;;;;;-144.51;100.00;69251.94;5056836;28;20041;-64
2021/10/06 12:00:33;;;;;;;8.90;1.52;;;;;;;-144.51;100.00;69251.94;5055338;28;20037;-65
2021/10/06 12:15:50;;;;;;;8.40;0.52;;;;;;;-144.51;100.00;69251.94;5059671;28;20037;-64
2021/10/06 12:19:01;;;;;;;5.47;0.63;;;;;;;-144.51;100.00;69251.94;5057244;28;20045;-64
2021/10/06 12:21:46;;;;;;;7.45;0.73;;;;;;;-144.51;100.00;69251.94;5062846;28;20037;-65
2021/10/06 12:24:31;;;;;;;5.93;1.05;;;;;;;-144.51;100.00;69251.94;5045291;28;20049;-65
2021/10/06 12:27:39;;;;;;;7.20;1.15;;;;;;;-144.51;100.00;69251.94;5047294;28;20041;-64
2021/10/06 12:30:25;;;;;;;5.63;0.60;;;;;;;-144.51;100.00;69251.94;5062787;28;20037;-65
2021/10/06 12:33:15;;;;;;;0.90;0.22;;;;;;;-144.51;100.00;69251.94;5059609;28;20041;-64
2021/10/06 12:39:16;;;;;;;9.13;1.27;;;;;;;-144.51;100.00;69251.94;5050440;28;20046;-64
2021/10/06 12:42:04;;;;;;;3.38;0.90;;;;;;;-144.51;100.00;69251.94;5062247;28;20045;-63
2021/10/06 12:45:08;;;;;;;4.88;1.15;;;;;;;-144.51;100.00;69251.94;5058069;28;20041;-64
2021/10/06 12:47:52;;;;;;;9.27;0.95;;;;;;;-144.51;100.00;69251.94;5057569;28;20037;-64
2021/10/06 13:07:10;;;;;;;11.68;2.15;;;;;;;-144.51;100.00;69251.94;5051489;28;20045;-62
2021/10/06 13:09:55;;;;;;;5.75;0.70;;;;;;;-144.51;100.00;69251.94;5050338;28;20045;-62
2021/10/06 13:12:39;;;;;;;;;;;;;;;-144.51;100.00;69251.94;5055058;28;20481;-62
2021/10/06 13:15:24;;;;;;;12.38;1.50;;;;;;;-144.51;100.00;69251.94;5047518;28;19912;-62
2021/10/06 13:18:09;;;;;;;3.13;0.50;;;;;;;-144.51;100.00;69251.94;5053415;28;20033;-62
2021/10/06 13:20:54;;;;;;;;;;;;;;;-144.51;100.00;69251.94;5054414;28;20037;-62
2021/10/06 13:23:39;;;;;;;1.95;0.30;;;;;;;-144.51;100.00;69251.94;5053956;28;20288;-62
2021/10/06 13:26:24;;;;;;;1.75;0.50;;;;;;;-144.51;100.00;69251.94;5045435;28;20036;-62
2021/10/06 13:29:09;;;;;;;5.13;0.40;;;;;;;-144.51;100.00;69251.94;5057209;28;20044;-62
2021/10/06 13:31:55;;;;;;;;;;;;;;;-144.51;100.00;69251.94;5056660;28;20040;-62
2021/10/06 13:34:40;;;;;;;3.53;0.52;;;;;;;-144.51;100.00;69251.94;5046687;28;19917;-62